sensor_id;sensor_type;location;lat;lon;timestamp;P1;durP1;ratioP1;P2;durP2;ratioP2
14584;SDS011;7379;51.506;11.876;2024-03-22T00:02:06;10.32;;;8.05;;
14584;SDS011;7379;51.506;11.876;2024-03-22T00:04:33;9.90;;;7.60;;
14584;SDS011;7379;51.506;11.876;2024-03-22T00:07:00;10.13;;;7.85;;
14584;SDS011;7379;51.506;11.876;2024-03-22T00:09:25;9.23;;;7.45;;
14584;SDS011;7379;51.506;11.876;2024-03-22T00:11:52;9.45;;;8.02;;
14584;SDS011;7379;51.506;11.876;2024-03-22T00:14:18;10.50;;;8.07;;
14584;SDS011;7379;51.506;11.876;2024-03-22T00:16:44;9.43;;;8.10;;
14584;SDS011;7379;51.506;11.876;2024-03-22T00:19:10;9.73;;;7.78;;
14584;SDS011;7379;51.506;11.876;2024-03-22T00:21:38;11.65;;;8.40;;
14584;SDS011;7379;51.506;11.876;2024-03-22T00:24:04;9.98;;;7.80;;
14584;SDS011;7379;51.506;11.876;2024-03-22T00:26:30;9.98;;;8.02;;
14584;SDS011;7379;51.506;11.876;2024-03-22T00:28:56;9.48;;;8.10;;
14584;SDS011;7379;51.506;11.876;2024-03-22T00:31:24;9.90;;;8.05;;
14584;SDS011;7379;51.506;11.876;2024-03-22T00:33:50;9.93;;;7.72;;
14584;SDS011;7379;51.506;11.876;2024-03-22T00:36:16;11.43;;;8.23;;
14584;SDS011;7379;51.506;11.876;2024-03-22T00:38:43;10.63;;;8.48;;
14584;SDS011;7379;51.506;11.876;2024-03-22T00:41:10;10.00;;;7.60;;
14584;SDS011;7379;51.506;11.876;2024-03-22T00:43:36;10.32;;;8.07;;
14584;SDS011;7379;51.506;11.876;2024-03-22T00:46:02;10.27;;;8.23;;
14584;SDS011;7379;51.506;11.876;2024-03-22T00:48:28;10.13;;;8.30;;
14584;SDS011;7379;51.506;11.876;2024-03-22T00:50:55;9.10;;;7.40;;
14584;SDS011;7379;51.506;11.876;2024-03-22T00:53:20;8.90;;;7.70;;
14584;SDS011;7379;51.506;11.876;2024-03-22T00:55:49;9.43;;;7.50;;
14584;SDS011;7379;51.506;11.876;2024-03-22T00:58:16;9.70;;;7.50;;
14584;SDS011;7379;51.506;11.876;2024-03-22T01:00:44;10.15;;;8.13;;
14584;SDS011;7379;51.506;11.876;2024-03-22T01:03:10;10.43;;;7.85;;
14584;SDS011;7379;51.506;11.876;2024-03-22T01:05:36;8.85;;;7.70;;
14584;SDS011;7379;51.506;11.876;2024-03-22T01:08:02;8.43;;;7.20;;
14584;SDS011;7379;51.506;11.876;2024-03-22T01:10:30;9.02;;;7.30;;
14584;SDS011;7379;51.506;11.876;2024-03-22T01:12:57;8.45;;;7.20;;
14584;SDS011;7379;51.506;11.876;2024-03-22T01:15:23;8.07;;;6.90;;
14584;SDS011;7379;51.506;11.876;2024-03-22T01:17:49;9.73;;;7.43;;
14584;SDS011;7379;51.506;11.876;2024-03-22T01:20:16;7.60;;;6.82;;
14584;SDS011;7379;51.506;11.876;2024-03-22T01:22:41;10.00;;;6.80;;
14584;SDS011;7379;51.506;11.876;2024-03-22T01:25:08;8.65;;;7.18;;
14584;SDS011;7379;51.506;11.876;2024-03-22T01:27:34;8.45;;;6.30;;
14584;SDS011;7379;51.506;11.876;2024-03-22T01:30:02;8.07;;;6.63;;
14584;SDS011;7379;51.506;11.876;2024-03-22T01:32:29;8.15;;;6.30;;
14584;SDS011;7379;51.506;11.876;2024-03-22T01:34:56;7.95;;;6.40;;
14584;SDS011;7379;51.506;11.876;2024-03-22T01:37:22;7.40;;;6.45;;
14584;SDS011;7379;51.506;11.876;2024-03-22T01:39:49;7.15;;;6.10;;
14584;SDS011;7379;51.506;11.876;2024-03-22T01:42:14;8.68;;;6.35;;
14584;SDS011;7379;51.506;11.876;2024-03-22T01:44:41;8.55;;;6.28;;
14584;SDS011;7379;51.506;11.876;2024-03-22T01:47:08;8.02;;;6.07;;
14584;SDS011;7379;51.506;11.876;2024-03-22T01:49:35;8.55;;;5.80;;
14584;SDS011;7379;51.506;11.876;2024-03-22T01:52:01;7.38;;;5.65;;
14584;SDS011;7379;51.506;11.876;2024-03-22T01:54:28;9.00;;;6.40;;
14584;SDS011;7379;51.506;11.876;2024-03-22T01:56:55;8.27;;;6.10;;
14584;SDS011;7379;51.506;11.876;2024-03-22T01:59:22;6.43;;;5.60;;
14584;SDS011;7379;51.506;11.876;2024-03-22T02:01:48;8.30;;;5.68;;
14584;SDS011;7379;51.506;11.876;2024-03-22T02:04:17;7.90;;;5.97;;
14584;SDS011;7379;51.506;11.876;2024-03-22T02:06:42;7.68;;;6.07;;
14584;SDS011;7379;51.506;11.876;2024-03-22T02:09:09;6.97;;;5.95;;
14584;SDS011;7379;51.506;11.876;2024-03-22T02:11:35;7.32;;;5.68;;
14584;SDS011;7379;51.506;11.876;2024-03-22T02:14:02;6.93;;;5.82;;
14584;SDS011;7379;51.506;11.876;2024-03-22T02:16:28;6.25;;;5.40;;
14584;SDS011;7379;51.506;11.876;2024-03-22T02:18:55;6.85;;;5.82;;
14584;SDS011;7379;51.506;11.876;2024-03-22T02:21:22;6.15;;;5.55;;
14584;SDS011;7379;51.506;11.876;2024-03-22T02:23:50;6.75;;;5.68;;
14584;SDS011;7379;51.506;11.876;2024-03-22T02:26:16;6.57;;;5.65;;
14584;SDS011;7379;51.506;11.876;2024-03-22T02:28:42;6.32;;;5.63;;
14584;SDS011;7379;51.506;11.876;2024-03-22T02:31:08;7.35;;;5.78;;
14584;SDS011;7379;51.506;11.876;2024-03-22T02:33:35;5.95;;;5.10;;
14584;SDS011;7379;51.506;11.876;2024-03-22T02:36:01;6.50;;;5.50;;
14584;SDS011;7379;51.506;11.876;2024-03-22T02:38:27;7.50;;;5.57;;
14584;SDS011;7379;51.506;11.876;2024-03-22T02:40:54;7.30;;;5.72;;
14584;SDS011;7379;51.506;11.876;2024-03-22T02:43:21;7.85;;;5.93;;
14584;SDS011;7379;51.506;11.876;2024-03-22T02:45:47;8.02;;;5.70;;
14584;SDS011;7379;51.506;11.876;2024-03-22T02:48:13;6.72;;;5.70;;
14584;SDS011;7379;51.506;11.876;2024-03-22T02:50:39;7.13;;;5.75;;
14584;SDS011;7379;51.506;11.876;2024-03-22T02:53:06;7.15;;;5.38;;
14584;SDS011;7379;51.506;11.876;2024-03-22T02:55:36;9.35;;;6.15;;
14584;SDS011;7379;51.506;11.876;2024-03-22T02:58:04;7.32;;;5.70;;
14584;SDS011;7379;51.506;11.876;2024-03-22T03:00:30;7.30;;;5.72;;
14584;SDS011;7379;51.506;11.876;2024-03-22T03:02:57;7.35;;;6.03;;
14584;SDS011;7379;51.506;11.876;2024-03-22T03:05:23;7.88;;;5.78;;
14584;SDS011;7379;51.506;11.876;2024-03-22T03:07:50;6.50;;;5.47;;
14584;SDS011;7379;51.506;11.876;2024-03-22T03:10:16;7.47;;;5.90;;
14584;SDS011;7379;51.506;11.876;2024-03-22T03:12:43;7.47;;;6.28;;
14584;SDS011;7379;51.506;11.876;2024-03-22T03:15:10;8.75;;;6.20;;
14584;SDS011;7379;51.506;11.876;2024-03-22T03:17:36;8.25;;;6.22;;
14584;SDS011;7379;51.506;11.876;2024-03-22T03:20:02;6.82;;;6.13;;
14584;SDS011;7379;51.506;11.876;2024-03-22T03:22:32;7.45;;;6.65;;
14584;SDS011;7379;51.506;11.876;2024-03-22T03:24:58;8.13;;;6.53;;
14584;SDS011;7379;51.506;11.876;2024-03-22T03:27:25;8.80;;;6.40;;
14584;SDS011;7379;51.506;11.876;2024-03-22T03:29:50;8.55;;;6.30;;
14584;SDS011;7379;51.506;11.876;2024-03-22T03:32:18;6.90;;;6.00;;
14584;SDS011;7379;51.506;11.876;2024-03-22T03:34:44;7.13;;;6.30;;
14584;SDS011;7379;51.506;11.876;2024-03-22T03:37:11;7.85;;;6.07;;
14584;SDS011;7379;51.506;11.876;2024-03-22T03:39:36;7.75;;;6.30;;
14584;SDS011;7379;51.506;11.876;2024-03-22T03:42:03;8.43;;;6.35;;
14584;SDS011;7379;51.506;11.876;2024-03-22T03:44:29;8.10;;;6.28;;
14584;SDS011;7379;51.506;11.876;2024-03-22T03:46:55;7.82;;;6.32;;
14584;SDS011;7379;51.506;11.876;2024-03-22T03:49:22;8.13;;;6.75;;
14584;SDS011;7379;51.506;11.876;2024-03-22T03:51:49;9.02;;;6.32;;
14584;SDS011;7379;51.506;11.876;2024-03-22T03:54:14;9.27;;;6.72;;
14584;SDS011;7379;51.506;11.876;2024-03-22T03:56:41;8.98;;;6.72;;
14584;SDS011;7379;51.506;11.876;2024-03-22T03:59:07;7.72;;;6.63;;
14584;SDS011;7379;51.506;11.876;2024-03-22T04:01:33;7.78;;;6.80;;
14584;SDS011;7379;51.506;11.876;2024-03-22T04:03:59;8.18;;;6.70;;
14584;SDS011;7379;51.506;11.876;2024-03-22T04:06:27;7.80;;;6.57;;
14584;SDS011;7379;51.506;11.876;2024-03-22T04:08:53;7.90;;;6.25;;
14584;SDS011;7379;51.506;11.876;2024-03-22T04:11:19;8.35;;;6.65;;
14584;SDS011;7379;51.506;11.876;2024-03-22T04:13:45;8.23;;;6.93;;
14584;SDS011;7379;51.506;11.876;2024-03-22T04:16:12;8.40;;;6.80;;
14584;SDS011;7379;51.506;11.876;2024-03-22T04:18:38;8.50;;;6.88;;
14584;SDS011;7379;51.506;11.876;2024-03-22T04:21:05;7.47;;;6.68;;
14584;SDS011;7379;51.506;11.876;2024-03-22T04:23:32;9.02;;;7.28;;
14584;SDS011;7379;51.506;11.876;2024-03-22T04:25:59;8.27;;;6.65;;
14584;SDS011;7379;51.506;11.876;2024-03-22T04:28:25;8.23;;;6.47;;
14584;SDS011;7379;51.506;11.876;2024-03-22T04:30:58;8.15;;;6.97;;
14584;SDS011;7379;51.506;11.876;2024-03-22T04:33:25;9.13;;;6.63;;
14584;SDS011;7379;51.506;11.876;2024-03-22T04:35:51;8.38;;;6.65;;
14584;SDS011;7379;51.506;11.876;2024-03-22T04:38:17;7.90;;;6.65;;
14584;SDS011;7379;51.506;11.876;2024-03-22T04:40:45;7.78;;;6.93;;
14584;SDS011;7379;51.506;11.876;2024-03-22T04:43:12;8.52;;;6.88;;
14584;SDS011;7379;51.506;11.876;2024-03-22T04:45:41;7.88;;;6.68;;
14584;SDS011;7379;51.506;11.876;2024-03-22T04:48:07;8.63;;;6.68;;
14584;SDS011;7379;51.506;11.876;2024-03-22T04:50:34;9.40;;;6.97;;
14584;SDS011;7379;51.506;11.876;2024-03-22T04:53:00;7.00;;;6.30;;
14584;SDS011;7379;51.506;11.876;2024-03-22T04:55:26;9.80;;;7.20;;
14584;SDS011;7379;51.506;11.876;2024-03-22T04:57:53;8.20;;;6.53;;
14584;SDS011;7379;51.506;11.876;2024-03-22T05:00:20;9.07;;;7.20;;
14584;SDS011;7379;51.506;11.876;2024-03-22T05:02:46;8.02;;;7.00;;
14584;SDS011;7379;51.506;11.876;2024-03-22T05:05:13;10.55;;;7.22;;
14584;SDS011;7379;51.506;11.876;2024-03-22T05:07:38;8.85;;;7.13;;
14584;SDS011;7379;51.506;11.876;2024-03-22T05:10:05;8.63;;;7.18;;
14584;SDS011;7379;51.506;11.876;2024-03-22T05:12:31;7.40;;;6.55;;
14584;SDS011;7379;51.506;11.876;2024-03-22T05:14:59;7.90;;;7.00;;
14584;SDS011;7379;51.506;11.876;2024-03-22T05:17:25;8.57;;;7.00;;
14584;SDS011;7379;51.506;11.876;2024-03-22T05:19:52;9.57;;;7.63;;
14584;SDS011;7379;51.506;11.876;2024-03-22T05:22:17;9.68;;;6.90;;
14584;SDS011;7379;51.506;11.876;2024-03-22T05:24:45;8.75;;;7.00;;
14584;SDS011;7379;51.506;11.876;2024-03-22T05:27:11;9.18;;;7.20;;
14584;SDS011;7379;51.506;11.876;2024-03-22T05:29:38;10.05;;;7.22;;
14584;SDS011;7379;51.506;11.876;2024-03-22T05:32:05;8.88;;;7.45;;
14584;SDS011;7379;51.506;11.876;2024-03-22T05:34:32;9.02;;;7.55;;
14584;SDS011;7379;51.506;11.876;2024-03-22T05:36:58;10.73;;;7.82;;
14584;SDS011;7379;51.506;11.876;2024-03-22T05:39:24;9.68;;;7.55;;
14584;SDS011;7379;51.506;11.876;2024-03-22T05:41:50;9.02;;;7.32;;
14584;SDS011;7379;51.506;11.876;2024-03-22T05:44:17;8.02;;;6.45;;
14584;SDS011;7379;51.506;11.876;2024-03-22T05:46:43;8.77;;;7.47;;
14584;SDS011;7379;51.506;11.876;2024-03-22T05:49:11;8.75;;;7.15;;
14584;SDS011;7379;51.506;11.876;2024-03-22T05:51:36;10.02;;;7.03;;
14584;SDS011;7379;51.506;11.876;2024-03-22T05:54:03;8.98;;;7.43;;
14584;SDS011;7379;51.506;11.876;2024-03-22T05:56:29;9.40;;;7.72;;
14584;SDS011;7379;51.506;11.876;2024-03-22T05:58:56;9.63;;;7.32;;
14584;SDS011;7379;51.506;11.876;2024-03-22T06:01:21;10.30;;;7.18;;
14584;SDS011;7379;51.506;11.876;2024-03-22T06:03:48;9.52;;;7.57;;
14584;SDS011;7379;51.506;11.876;2024-03-22T06:06:15;9.90;;;7.75;;
14584;SDS011;7379;51.506;11.876;2024-03-22T06:08:42;9.82;;;8.32;;
14584;SDS011;7379;51.506;11.876;2024-03-22T06:11:10;12.48;;;8.02;;
14584;SDS011;7379;51.506;11.876;2024-03-22T06:13:36;12.18;;;8.27;;
14584;SDS011;7379;51.506;11.876;2024-03-22T06:16:03;10.30;;;8.00;;
14584;SDS011;7379;51.506;11.876;2024-03-22T06:18:30;10.50;;;8.00;;
14584;SDS011;7379;51.506;11.876;2024-03-22T06:20:56;11.38;;;9.02;;
14584;SDS011;7379;51.506;11.876;2024-03-22T06:23:23;10.73;;;8.18;;
14584;SDS011;7379;51.506;11.876;2024-03-22T06:25:53;9.93;;;7.85;;
14584;SDS011;7379;51.506;11.876;2024-03-22T06:28:19;11.48;;;8.30;;
14584;SDS011;7379;51.506;11.876;2024-03-22T06:30:46;10.68;;;8.30;;
14584;SDS011;7379;51.506;11.876;2024-03-22T06:33:12;12.85;;;9.45;;
14584;SDS011;7379;51.506;11.876;2024-03-22T06:35:39;12.10;;;8.35;;
14584;SDS011;7379;51.506;11.876;2024-03-22T06:38:05;11.93;;;9.30;;
14584;SDS011;7379;51.506;11.876;2024-03-22T06:40:33;11.85;;;9.00;;
14584;SDS011;7379;51.506;11.876;2024-03-22T06:42:59;13.82;;;10.00;;
14584;SDS011;7379;51.506;11.876;2024-03-22T06:45:26;13.63;;;9.40;;
14584;SDS011;7379;51.506;11.876;2024-03-22T06:47:52;13.82;;;9.70;;
14584;SDS011;7379;51.506;11.876;2024-03-22T06:50:19;12.40;;;9.48;;
14584;SDS011;7379;51.506;11.876;2024-03-22T06:52:49;13.05;;;10.15;;
14584;SDS011;7379;51.506;11.876;2024-03-22T06:55:16;16.30;;;11.65;;
14584;SDS011;7379;51.506;11.876;2024-03-22T06:57:43;14.65;;;10.20;;
14584;SDS011;7379;51.506;11.876;2024-03-22T07:00:11;13.75;;;10.35;;
14584;SDS011;7379;51.506;11.876;2024-03-22T07:02:38;13.98;;;10.77;;
14584;SDS011;7379;51.506;11.876;2024-03-22T07:05:05;15.70;;;11.05;;
14584;SDS011;7379;51.506;11.876;2024-03-22T07:07:31;15.00;;;10.70;;
14584;SDS011;7379;51.506;11.876;2024-03-22T07:09:58;14.65;;;11.13;;
14584;SDS011;7379;51.506;11.876;2024-03-22T07:12:23;15.90;;;10.65;;
14584;SDS011;7379;51.506;11.876;2024-03-22T07:14:52;13.25;;;10.57;;
14584;SDS011;7379;51.506;11.876;2024-03-22T07:17:17;19.45;;;12.75;;
14584;SDS011;7379;51.506;11.876;2024-03-22T07:19:48;17.65;;;12.80;;
14584;SDS011;7379;51.506;11.876;2024-03-22T07:22:14;19.30;;;12.80;;
14584;SDS011;7379;51.506;11.876;2024-03-22T07:24:41;16.80;;;12.65;;
14584;SDS011;7379;51.506;11.876;2024-03-22T07:27:06;17.95;;;13.15;;
14584;SDS011;7379;51.506;11.876;2024-03-22T07:29:33;20.05;;;13.60;;
14584;SDS011;7379;51.506;11.876;2024-03-22T07:32:00;17.83;;;12.95;;
14584;SDS011;7379;51.506;11.876;2024-03-22T07:34:27;19.42;;;13.57;;
14584;SDS011;7379;51.506;11.876;2024-03-22T07:36:52;18.27;;;13.27;;
14584;SDS011;7379;51.506;11.876;2024-03-22T07:39:19;19.05;;;13.18;;
14584;SDS011;7379;51.506;11.876;2024-03-22T07:41:44;18.88;;;13.55;;
14584;SDS011;7379;51.506;11.876;2024-03-22T07:44:11;18.75;;;14.07;;
14584;SDS011;7379;51.506;11.876;2024-03-22T07:46:37;21.38;;;14.13;;
14584;SDS011;7379;51.506;11.876;2024-03-22T07:49:05;19.73;;;13.65;;
14584;SDS011;7379;51.506;11.876;2024-03-22T07:51:30;19.80;;;14.02;;
14584;SDS011;7379;51.506;11.876;2024-03-22T07:53:57;17.92;;;13.23;;
14584;SDS011;7379;51.506;11.876;2024-03-22T07:56:23;20.08;;;13.68;;
14584;SDS011;7379;51.506;11.876;2024-03-22T07:58:49;20.52;;;14.00;;
14584;SDS011;7379;51.506;11.876;2024-03-22T08:01:15;20.67;;;14.93;;
14584;SDS011;7379;51.506;11.876;2024-03-22T08:03:42;22.15;;;15.35;;
14584;SDS011;7379;51.506;11.876;2024-03-22T08:06:09;21.15;;;14.38;;
14584;SDS011;7379;51.506;11.876;2024-03-22T08:08:36;21.67;;;15.50;;
14584;SDS011;7379;51.506;11.876;2024-03-22T08:11:02;21.65;;;14.80;;
14584;SDS011;7379;51.506;11.876;2024-03-22T08:13:28;22.50;;;15.70;;
14584;SDS011;7379;51.506;11.876;2024-03-22T08:15:55;20.92;;;14.90;;
14584;SDS011;7379;51.506;11.876;2024-03-22T08:18:21;23.63;;;16.30;;
14584;SDS011;7379;51.506;11.876;2024-03-22T08:20:48;23.63;;;15.95;;
14584;SDS011;7379;51.506;11.876;2024-03-22T08:23:15;23.38;;;16.55;;
14584;SDS011;7379;51.506;11.876;2024-03-22T08:25:42;25.13;;;15.90;;
14584;SDS011;7379;51.506;11.876;2024-03-22T08:28:08;23.00;;;16.30;;
14584;SDS011;7379;51.506;11.876;2024-03-22T08:30:37;23.42;;;16.13;;
14584;SDS011;7379;51.506;11.876;2024-03-22T08:33:03;25.38;;;16.50;;
14584;SDS011;7379;51.506;11.876;2024-03-22T08:35:29;23.95;;;16.52;;
14584;SDS011;7379;51.506;11.876;2024-03-22T08:37:55;23.42;;;16.60;;
14584;SDS011;7379;51.506;11.876;2024-03-22T08:40:24;23.65;;;17.10;;
14584;SDS011;7379;51.506;11.876;2024-03-22T08:42:50;26.25;;;16.67;;
14584;SDS011;7379;51.506;11.876;2024-03-22T08:45:17;25.42;;;17.92;;
14584;SDS011;7379;51.506;11.876;2024-03-22T08:47:42;27.48;;;17.77;;
14584;SDS011;7379;51.506;11.876;2024-03-22T08:50:10;25.48;;;16.70;;
14584;SDS011;7379;51.506;11.876;2024-03-22T08:52:36;27.00;;;17.02;;
14584;SDS011;7379;51.506;11.876;2024-03-22T08:55:03;26.15;;;17.65;;
14584;SDS011;7379;51.506;11.876;2024-03-22T08:57:32;27.13;;;17.98;;
14584;SDS011;7379;51.506;11.876;2024-03-22T08:59:58;26.80;;;18.05;;
14584;SDS011;7379;51.506;11.876;2024-03-22T09:02:24;27.50;;;17.40;;
14584;SDS011;7379;51.506;11.876;2024-03-22T09:04:51;26.65;;;17.58;;
14584;SDS011;7379;51.506;11.876;2024-03-22T09:07:18;26.05;;;18.00;;
14584;SDS011;7379;51.506;11.876;2024-03-22T09:09:44;26.08;;;17.27;;
14584;SDS011;7379;51.506;11.876;2024-03-22T09:12:10;24.42;;;17.05;;
14584;SDS011;7379;51.506;11.876;2024-03-22T09:14:38;24.38;;;16.83;;
14584;SDS011;7379;51.506;11.876;2024-03-22T09:17:05;23.50;;;16.63;;
14584;SDS011;7379;51.506;11.876;2024-03-22T09:19:32;24.00;;;16.80;;
14584;SDS011;7379;51.506;11.876;2024-03-22T09:21:57;24.48;;;17.02;;
14584;SDS011;7379;51.506;11.876;2024-03-22T09:24:24;25.17;;;16.60;;
14584;SDS011;7379;51.506;11.876;2024-03-22T09:26:50;26.75;;;17.60;;
14584;SDS011;7379;51.506;11.876;2024-03-22T09:29:18;25.15;;;16.08;;
14584;SDS011;7379;51.506;11.876;2024-03-22T09:31:45;23.13;;;16.48;;
14584;SDS011;7379;51.506;11.876;2024-03-22T09:34:11;23.33;;;15.75;;
14584;SDS011;7379;51.506;11.876;2024-03-22T09:36:37;32.90;;;17.50;;
14584;SDS011;7379;51.506;11.876;2024-03-22T09:39:04;24.75;;;16.50;;
14584;SDS011;7379;51.506;11.876;2024-03-22T09:41:31;25.55;;;16.35;;
14584;SDS011;7379;51.506;11.876;2024-03-22T09:43:58;26.63;;;16.80;;
14584;SDS011;7379;51.506;11.876;2024-03-22T09:46:25;22.20;;;15.05;;
14584;SDS011;7379;51.506;11.876;2024-03-22T09:48:54;24.80;;;15.73;;
14584;SDS011;7379;51.506;11.876;2024-03-22T09:51:20;23.10;;;15.60;;
14584;SDS011;7379;51.506;11.876;2024-03-22T09:53:47;21.95;;;15.50;;
14584;SDS011;7379;51.506;11.876;2024-03-22T09:56:14;23.85;;;15.88;;
14584;SDS011;7379;51.506;11.876;2024-03-22T09:58:41;23.50;;;14.98;;
14584;SDS011;7379;51.506;11.876;2024-03-22T10:01:08;21.35;;;14.95;;
14584;SDS011;7379;51.506;11.876;2024-03-22T10:03:35;21.30;;;14.25;;
14584;SDS011;7379;51.506;11.876;2024-03-22T10:06:03;21.38;;;14.10;;
14584;SDS011;7379;51.506;11.876;2024-03-22T10:08:30;19.75;;;13.63;;
14584;SDS011;7379;51.506;11.876;2024-03-22T10:10:57;19.33;;;13.63;;
14584;SDS011;7379;51.506;11.876;2024-03-22T10:13:23;21.33;;;13.88;;
14584;SDS011;7379;51.506;11.876;2024-03-22T10:15:49;19.95;;;13.00;;
14584;SDS011;7379;51.506;11.876;2024-03-22T10:18:16;19.33;;;13.40;;
14584;SDS011;7379;51.506;11.876;2024-03-22T10:20:42;18.65;;;13.43;;
14584;SDS011;7379;51.506;11.876;2024-03-22T10:23:10;20.35;;;13.60;;
14584;SDS011;7379;51.506;11.876;2024-03-22T10:25:36;21.17;;;13.40;;
14584;SDS011;7379;51.506;11.876;2024-03-22T10:28:03;21.20;;;13.95;;
14584;SDS011;7379;51.506;11.876;2024-03-22T10:30:29;20.15;;;13.05;;
14584;SDS011;7379;51.506;11.876;2024-03-22T10:32:56;17.77;;;13.00;;
14584;SDS011;7379;51.506;11.876;2024-03-22T10:35:22;20.10;;;13.30;;
14584;SDS011;7379;51.506;11.876;2024-03-22T10:37:50;21.52;;;13.95;;
14584;SDS011;7379;51.506;11.876;2024-03-22T10:40:18;19.77;;;13.40;;
14584;SDS011;7379;51.506;11.876;2024-03-22T10:42:46;20.02;;;13.48;;
14584;SDS011;7379;51.506;11.876;2024-03-22T10:45:12;18.08;;;13.30;;
14584;SDS011;7379;51.506;11.876;2024-03-22T10:47:39;18.38;;;12.75;;
14584;SDS011;7379;51.506;11.876;2024-03-22T10:50:06;20.48;;;13.70;;
14584;SDS011;7379;51.506;11.876;2024-03-22T10:52:34;19.35;;;13.23;;
14584;SDS011;7379;51.506;11.876;2024-03-22T10:55:03;19.13;;;13.10;;
14584;SDS011;7379;51.506;11.876;2024-03-22T10:57:34;19.63;;;13.88;;
14584;SDS011;7379;51.506;11.876;2024-03-22T11:00:02;19.42;;;13.65;;
14584;SDS011;7379;51.506;11.876;2024-03-22T11:02:35;19.30;;;12.93;;
14584;SDS011;7379;51.506;11.876;2024-03-22T11:05:01;20.15;;;13.38;;
14584;SDS011;7379;51.506;11.876;2024-03-22T11:07:28;21.25;;;13.82;;
14584;SDS011;7379;51.506;11.876;2024-03-22T11:09:55;18.65;;;13.40;;
14584;SDS011;7379;51.506;11.876;2024-03-22T11:12:24;21.42;;;13.10;;
14584;SDS011;7379;51.506;11.876;2024-03-22T11:14:51;19.63;;;13.77;;
14584;SDS011;7379;51.506;11.876;2024-03-22T11:17:19;20.38;;;14.13;;
14584;SDS011;7379;51.506;11.876;2024-03-22T11:19:46;20.63;;;14.15;;
14584;SDS011;7379;51.506;11.876;2024-03-22T11:22:13;20.42;;;13.13;;
14584;SDS011;7379;51.506;11.876;2024-03-22T11:24:39;21.13;;;14.05;;
14584;SDS011;7379;51.506;11.876;2024-03-22T11:27:07;21.23;;;14.52;;
14584;SDS011;7379;51.506;11.876;2024-03-22T11:29:35;18.67;;;13.60;;
14584;SDS011;7379;51.506;11.876;2024-03-22T11:32:05;22.42;;;13.75;;
14584;SDS011;7379;51.506;11.876;2024-03-22T11:34:33;19.23;;;14.07;;
14584;SDS011;7379;51.506;11.876;2024-03-22T11:37:00;20.02;;;14.25;;
14584;SDS011;7379;51.506;11.876;2024-03-22T11:39:26;21.27;;;14.82;;
14584;SDS011;7379;51.506;11.876;2024-03-22T11:41:52;19.85;;;13.65;;
14584;SDS011;7379;51.506;11.876;2024-03-22T11:44:19;20.00;;;14.27;;
14584;SDS011;7379;51.506;11.876;2024-03-22T11:46:47;20.25;;;14.25;;
14584;SDS011;7379;51.506;11.876;2024-03-22T11:49:14;18.73;;;13.57;;
14584;SDS011;7379;51.506;11.876;2024-03-22T11:51:41;20.55;;;14.02;;
14584;SDS011;7379;51.506;11.876;2024-03-22T11:54:07;21.20;;;14.07;;
14584;SDS011;7379;51.506;11.876;2024-03-22T11:56:34;21.52;;;14.73;;
14584;SDS011;7379;51.506;11.876;2024-03-22T11:59:00;20.50;;;14.98;;
14584;SDS011;7379;51.506;11.876;2024-03-22T12:01:28;19.67;;;14.30;;
14584;SDS011;7379;51.506;11.876;2024-03-22T12:03:54;21.20;;;14.52;;
14584;SDS011;7379;51.506;11.876;2024-03-22T12:06:22;20.17;;;14.60;;
14584;SDS011;7379;51.506;11.876;2024-03-22T12:08:48;19.98;;;14.20;;
14584;SDS011;7379;51.506;11.876;2024-03-22T12:11:15;19.10;;;14.43;;
14584;SDS011;7379;51.506;11.876;2024-03-22T12:13:41;20.58;;;15.00;;
14584;SDS011;7379;51.506;11.876;2024-03-22T12:16:08;22.13;;;15.35;;
14584;SDS011;7379;51.506;11.876;2024-03-22T12:18:34;21.20;;;15.27;;
14584;SDS011;7379;51.506;11.876;2024-03-22T12:21:00;21.05;;;14.98;;
14584;SDS011;7379;51.506;11.876;2024-03-22T12:23:28;21.10;;;14.77;;
14584;SDS011;7379;51.506;11.876;2024-03-22T12:25:54;20.73;;;14.88;;
14584;SDS011;7379;51.506;11.876;2024-03-22T12:28:21;22.85;;;15.95;;
14584;SDS011;7379;51.506;11.876;2024-03-22T12:30:48;20.73;;;15.38;;
14584;SDS011;7379;51.506;11.876;2024-03-22T12:33:14;20.75;;;14.98;;
14584;SDS011;7379;51.506;11.876;2024-03-22T12:35:41;23.00;;;15.48;;
14584;SDS011;7379;51.506;11.876;2024-03-22T12:38:07;21.50;;;15.63;;
14584;SDS011;7379;51.506;11.876;2024-03-22T12:40:37;23.13;;;15.82;;
14584;SDS011;7379;51.506;11.876;2024-03-22T12:43:03;22.02;;;15.93;;
14584;SDS011;7379;51.506;11.876;2024-03-22T12:45:30;20.80;;;15.30;;
14584;SDS011;7379;51.506;11.876;2024-03-22T12:47:57;25.05;;;16.42;;
14584;SDS011;7379;51.506;11.876;2024-03-22T12:50:24;22.98;;;16.23;;
14584;SDS011;7379;51.506;11.876;2024-03-22T12:52:50;24.15;;;17.42;;
14584;SDS011;7379;51.506;11.876;2024-03-22T12:55:16;22.50;;;15.57;;
14584;SDS011;7379;51.506;11.876;2024-03-22T12:57:43;23.85;;;16.27;;
14584;SDS011;7379;51.506;11.876;2024-03-22T13:00:11;21.75;;;15.48;;
14584;SDS011;7379;51.506;11.876;2024-03-22T13:02:38;24.40;;;16.17;;
14584;SDS011;7379;51.506;11.876;2024-03-22T13:05:05;22.27;;;16.50;;
14584;SDS011;7379;51.506;11.876;2024-03-22T13:07:31;27.05;;;17.55;;
14584;SDS011;7379;51.506;11.876;2024-03-22T13:09:58;27.20;;;17.85;;
14584;SDS011;7379;51.506;11.876;2024-03-22T13:12:25;22.27;;;16.63;;
14584;SDS011;7379;51.506;11.876;2024-03-22T13:14:53;23.17;;;16.83;;
14584;SDS011;7379;51.506;11.876;2024-03-22T13:17:18;23.23;;;16.70;;
14584;SDS011;7379;51.506;11.876;2024-03-22T13:19:45;24.17;;;16.98;;
14584;SDS011;7379;51.506;11.876;2024-03-22T13:22:11;22.23;;;16.13;;
14584;SDS011;7379;51.506;11.876;2024-03-22T13:24:39;21.50;;;15.73;;
14584;SDS011;7379;51.506;11.876;2024-03-22T13:27:05;24.10;;;16.80;;
14584;SDS011;7379;51.506;11.876;2024-03-22T13:29:33;22.50;;;16.65;;
14584;SDS011;7379;51.506;11.876;2024-03-22T13:32:01;23.48;;;17.35;;
14584;SDS011;7379;51.506;11.876;2024-03-22T13:34:26;20.02;;;15.07;;
14584;SDS011;7379;51.506;11.876;2024-03-22T13:36:53;19.77;;;15.65;;
14584;SDS011;7379;51.506;11.876;2024-03-22T13:39:19;20.17;;;15.52;;
14584;SDS011;7379;51.506;11.876;2024-03-22T13:41:45;19.58;;;15.13;;
14584;SDS011;7379;51.506;11.876;2024-03-22T13:44:12;24.33;;;15.95;;
14584;SDS011;7379;51.506;11.876;2024-03-22T13:46:38;19.80;;;15.48;;
14584;SDS011;7379;51.506;11.876;2024-03-22T13:49:12;23.35;;;15.98;;
14584;SDS011;7379;51.506;11.876;2024-03-22T13:51:40;19.48;;;14.95;;
14584;SDS011;7379;51.506;11.876;2024-03-22T13:54:06;22.05;;;15.43;;
14584;SDS011;7379;51.506;11.876;2024-03-22T13:56:33;21.08;;;14.52;;
14584;SDS011;7379;51.506;11.876;2024-03-22T13:58:58;20.23;;;14.90;;
14584;SDS011;7379;51.506;11.876;2024-03-22T14:01:25;19.33;;;14.45;;
14584;SDS011;7379;51.506;11.876;2024-03-22T14:03:51;22.27;;;15.00;;
14584;SDS011;7379;51.506;11.876;2024-03-22T14:06:18;19.98;;;15.45;;
14584;SDS011;7379;51.506;11.876;2024-03-22T14:08:44;24.63;;;15.27;;
14584;SDS011;7379;51.506;11.876;2024-03-22T14:11:11;21.33;;;14.52;;
14584;SDS011;7379;51.506;11.876;2024-03-22T14:13:37;23.48;;;14.35;;
14584;SDS011;7379;51.506;11.876;2024-03-22T14:16:03;22.70;;;14.25;;
14584;SDS011;7379;51.506;11.876;2024-03-22T14:18:32;22.10;;;13.77;;
14584;SDS011;7379;51.506;11.876;2024-03-22T14:21:00;19.90;;;14.13;;
14584;SDS011;7379;51.506;11.876;2024-03-22T14:23:27;18.83;;;13.73;;
14584;SDS011;7379;51.506;11.876;2024-03-22T14:25:54;20.75;;;13.57;;
14584;SDS011;7379;51.506;11.876;2024-03-22T14:28:20;17.20;;;14.00;;
14584;SDS011;7379;51.506;11.876;2024-03-22T14:30:48;18.52;;;12.93;;